Time;durP1;ratioP1;P1;durP2;ratioP2;P2;SDS_P1;SDS_P2;PMS_P1;PMS_P2;Temp;Humidity;BMP_temperature;BMP_pressure;BME280_temperature;BME280_humidity;BME280_pressure;Samples;Min_cycle;Max_cycle;Signal;HPM_P1;HPM_P2
2022/07/26 00:00:45;;;;;;;4.53;3.40;;;;;24.40;98712.00;;;;16645976;22;20249;-78
2022/07/26 00:08:49;;;;;;;6.73;3.17;;;;;24.30;98712.00;;;;16724557;22;20233;-48
2022/07/26 00:16:51;;;;;;;5.60;2.80;;;;;24.50;98729.00;;;;16654618;28;20252;-48
2022/07/26 00:24:55;;;;;;;3.70;2.80;;;;;24.50;98732.00;;;;16641363;28;20246;-48
2022/07/26 00:32:57;;;;;;;3.07;2.87;;;;;24.70;98737.00;;;;16644169;28;20234;-48
2022/07/26 00:41:01;;;;;;;5.07;3.40;;;;;25.00;98720.00;;;;16643847;28;20218;-48
2022/07/26 00:49:04;;;;;;;3.77;2.90;;;;;24.90;98722.00;;;;16645505;28;20371;-48
2022/07/26 00:57:08;;;;;;;3.83;2.20;;;;;24.90;98723.00;;;;16646478;28;20596;-48
2022/07/26 01:05:11;;;;;;;3.37;2.67;;;;;25.50;98726.00;;;;16643366;28;20348;-48
2022/07/26 01:13:19;;;;;;;2.73;2.00;;;;;26.10;98745.00;;;;16636420;28;20246;-47
2022/07/26 01:21:22;;;;;;;2.30;1.70;;;;;25.90;98740.00;;;;16643511;28;20317;-48
2022/07/26 01:29:26;;;;;;;2.27;1.63;;;;;25.50;98742.00;;;;16641726;28;20233;-48
2022/07/26 01:37:28;;;;;;;2.10;1.80;;;;;24.40;98779.00;;;;16651755;28;20265;-47
2022/07/26 01:45:32;;;;;;;3.60;2.37;;;;;25.20;98782.00;;;;16653762;28;20218;-47
2022/07/26 01:53:35;;;;;;;3.10;2.50;;;;;24.90;98770.00;;;;16657439;28;20225;-48
2022/07/26 02:01:38;;;;;;;3.77;2.33;;;;;26.30;98765.00;;;;16651197;28;20310;-49
2022/07/26 02:09:41;;;;;;;2.40;1.80;;;;;26.90;98752.00;;;;16653776;28;20517;-49
2022/07/26 02:17:45;;;;;;;3.40;1.93;;;;;27.00;98758.00;;;;16652070;28;20229;-49
2022/07/26 02:25:48;;;;;;;3.07;2.87;;;;;26.50;98755.00;;;;16654310;28;20246;-48
2022/07/26 02:33:51;;;;;;;2.90;2.53;;;;;27.10;98748.00;;;;16650366;28;20250;-48
2022/07/26 02:41:55;;;;;;;2.33;2.03;;;;;26.40;98738.00;;;;16652470;28;20312;-49
2022/07/26 02:49:58;;;;;;;3.73;3.23;;;;;26.70;98739.00;;;;16650739;28;20659;-49
2022/07/26 02:58:01;;;;;;;5.47;3.00;;;;;26.20;98735.00;;;;16653138;28;20226;-48
2022/07/26 03:06:05;;;;;;;5.80;3.00;;;;;26.10;98731.00;;;;16648888;28;20226;-49
2022/07/26 03:14:07;;;;;;;3.03;2.17;;;;;26.80;98721.00;;;;16650302;28;20284;-48
2022/07/26 03:22:11;;;;;;;6.00;2.97;;;;;26.70;98733.00;;;;16650512;28;20305;-48
2022/07/26 03:30:14;;;;;;;3.67;2.63;;;;;25.70;98743.00;;;;16649777;28;20656;-48
2022/07/26 03:38:18;;;;;;;2.53;2.13;;;;;24.80;98748.00;;;;16649460;28;20219;-48
2022/07/26 03:46:20;;;;;;;2.87;2.50;;;;;25.20;98744.00;;;;16648778;28;20264;-48
2022/07/26 03:54:24;;;;;;;2.70;1.90;;;;;25.70;98749.00;;;;16644099;28;20694;-48
2022/07/26 04:02:27;;;;;;;3.53;3.03;;;;;25.40;98746.00;;;;16640004;28;20285;-49
2022/07/26 04:10:31;;;;;;;5.10;2.87;;;;;25.20;98751.00;;;;16618504;28;20333;-48
2022/07/26 04:18:33;;;;;;;6.47;5.80;;;;;26.50;98749.00;;;;16639466;28;20541;-48
2022/07/26 04:26:37;;;;;;;4.73;2.70;;;;;27.50;98750.00;;;;16631247;28;20273;-48
2022/07/26 04:34:40;;;;;;;2.77;2.20;;;;;27.80;98756.00;;;;16642886;28;20219;-48
2022/07/26 04:42:44;;;;;;;3.60;2.40;;;;;27.90;98758.00;;;;16641694;28;20214;-48
2022/07/26 04:50:46;;;;;;;2.37;2.10;;;;;27.40;98765.00;;;;16645707;28;20697;-49
2022/07/26 04:58:50;;;;;;;3.20;1.80;;;;;26.60;98771.00;;;;16636835;28;20226;-48
2022/07/26 05:06:53;;;;;;;3.37;2.47;;;;;26.80;98786.00;;;;16625432;28;20300;-48
2022/07/26 05:14:56;;;;;;;2.23;1.90;;;;;27.00;98792.00;;;;16617345;28;20622;-49
2022/07/26 05:22:59;;;;;;;5.77;2.30;;;;;27.80;98780.00;;;;16635726;28;20801;-49
2022/07/26 05:31:03;;;;;;;2.80;2.13;;;;;27.80;98799.00;;;;16632369;28;20250;-49
2022/07/26 05:39:05;;;;;;;3.10;2.40;;;;;25.00;98800.00;;;;16632107;28;20276;-49
2022/07/26 05:47:09;;;;;;;2.27;2.10;;;;;26.00;98802.00;;;;16625937;28;20353;-49
2022/07/26 05:55:12;;;;;;;2.47;2.23;;;;;25.00;98787.00;;;;16648241;28;20647;-48
2022/07/26 06:03:22;;;;;;;3.97;2.70;;;;;25.70;98799.00;;;;16654818;22;20716;-47
2022/07/26 06:11:24;;;;;;;4.50;3.40;;;;;24.80;98796.00;;;;16666069;28;20234;-46
2022/07/26 06:19:28;;;;;;;2.97;2.57;;;;;26.10;98799.00;;;;16681552;28;20312;-47
2022/07/26 06:27:32;;;;;;;3.03;2.07;;;;;26.10;98797.00;;;;16706977;28;20786;-47
2022/07/26 06:35:37;;;;;;;4.53;2.30;;;;;27.10;98792.00;;;;16697506;28;20306;-47
2022/07/26 06:43:40;;;;;;;4.97;2.50;;;;;26.60;98793.00;;;;16675818;28;20217;-47
2022/07/26 06:51:44;;;;;;;2.43;1.90;;;;;25.20;98805.00;;;;16684939;28;20694;-46
2022/07/26 06:59:46;;;;;;;2.07;1.60;;;;;25.50;98804.00;;;;16680401;28;20579;-47
2022/07/26 07:07:50;;;;;;;3.83;1.60;;;;;26.50;98799.00;;;;16726070;28;20233;-47
2022/07/26 07:15:53;;;;;;;6.13;2.30;;;;;27.00;98803.00;;;;16721833;28;20302;-47
2022/07/26 07:23:56;;;;;;;2.10;1.57;;;;;25.90;98804.00;;;;16717207;28;20312;-45
2022/07/26 07:31:59;;;;;;;3.50;1.40;;;;;27.00;98792.00;;;;16696716;28;20243;-46
2022/07/26 07:40:05;;;;;;;3.20;1.40;;;;;26.70;98793.00;;;;16711868;28;20617;-46
2022/07/26 07:48:07;;;;;;;4.20;1.97;;;;;26.90;98787.00;;;;16680832;28;20344;-46
2022/07/26 07:56:11;;;;;;;2.10;1.40;;;;;26.60;98785.00;;;;16705824;28;20352;-46
2022/07/26 08:04:14;;;;;;;2.73;1.90;;;;;25.90;98782.00;;;;16684443;28;20806;-46
2022/07/26 08:12:18;;;;;;;4.47;1.60;;;;;26.50;98779.00;;;;16687191;28;20222;-47
2022/07/26 08:20:20;;;;;;;3.97;1.80;;;;;27.40;98776.00;;;;16698658;28;20510;-47
2022/07/26 08:28:25;;;;;;;1.93;1.40;;;;;26.70;98777.00;;;;16689129;28;20291;-47
2022/07/26 08:36:27;;;;;;;2.07;1.33;;;;;27.00;98779.00;;;;16700469;28;20576;-48
2022/07/26 08:44:31;;;;;;;1.43;1.13;;;;;27.70;98784.00;;;;16696037;28;20214;-48
2022/07/26 08:52:34;;;;;;;4.17;1.57;;;;;28.20;98785.00;;;;16697851;28;20222;-48
2022/07/26 09:00:40;;;;;;;3.77;1.53;;;;;26.70;98785.00;;;;16708370;28;20698;-48
2022/07/26 09:08:43;;;;;;;2.10;1.40;;;;;27.30;98795.00;;;;16717198;28;20303;-47
2022/07/26 09:16:58;;;;;;;2.50;1.43;;;;;27.50;98797.00;;;;16699158;28;20214;-48
2022/07/26 09:25:01;;;;;;;2.87;1.60;;;;;27.70;98783.00;;;;16696039;28;20230;-47
2022/07/26 09:33:07;;;;;;;3.30;1.30;;;;;27.50;98803.00;;;;16685227;28;20780;-47
2022/07/26 09:41:20;;;;;;;4.67;1.70;;;;;28.10;98816.00;;;;16693947;28;20218;-47
2022/07/26 09:49:24;;;;;;;8.30;5.47;;;;;27.80;98808.00;;;;16697215;28;20291;-47
2022/07/26 09:57:26;;;;;;;3.70;2.63;;;;;27.70;98808.00;;;;16697271;28;20268;-47
2022/07/26 10:05:31;;;;;;;15.93;9.03;;;;;28.20;98817.00;;;;16696630;28;20232;-47
2022/07/26 10:13:34;;;;;;;9.97;4.83;;;;;27.80;98825.00;;;;16703978;28;20705;-48
2022/07/26 10:21:38;;;;;;;5.37;2.53;;;;;27.70;98832.00;;;;16684728;28;20300;-47
2022/07/26 10:29:40;;;;;;;4.53;1.90;;;;;27.50;98826.00;;;;16674149;28;20704;-47
2022/07/26 10:37:58;;;;;;;2.87;1.83;;;;;27.90;98826.00;;;;16698658;28;20226;-48
2022/07/26 10:46:33;;;;;;;2.80;1.40;;;;;28.70;98824.00;;;;16693282;28;20671;-47
2022/07/26 10:55:16;;;;;;;2.53;1.60;;;;;28.60;98831.00;;;;16422521;28;20308;-48
2022/07/26 11:03:19;;;;;;;1.90;1.30;;;;;28.80;98823.00;;;;16419457;28;20237;-48
2022/07/26 11:11:29;;;;;;;2.30;1.70;;;;;28.30;98817.00;;;;16414852;28;20757;-47
2022/07/26 11:19:39;;;;;;;1.63;1.30;;;;;28.20;98825.00;;;;16446094;28;20419;-47
2022/07/26 11:27:59;;;;;;;1.50;1.20;;;;;28.50;98823.00;;;;16687181;28;20217;-46
2022/07/26 11:36:03;;;;;;;1.80;1.10;;;;;27.40;98822.00;;;;16700727;28;20245;-47
2022/07/26 11:44:06;;;;;;;2.43;1.37;;;;;28.00;98831.00;;;;16692217;28;20305;-48
2022/07/26 11:52:10;;;;;;;1.97;1.10;;;;;27.80;98826.00;;;;16692600;28;20251;-47
2022/07/26 12:00:15;;;;;;;1.97;1.40;;;;;28.70;98823.00;;;;16698476;28;20226;-47
2022/07/26 12:08:18;;;;;;;1.83;1.17;;;;;28.00;98822.00;;;;16676780;22;20456;-47
2022/07/26 12:16:41;;;;;;;1.77;1.10;;;;;28.10;98824.00;;;;16676679;28;20260;-47
2022/07/26 12:24:47;;;;;;;3.50;1.30;;;;;28.80;98813.00;;;;16713657;28;20225;-48
2022/07/26 12:32:53;;;;;;;1.10;1.00;;;;;29.00;98805.00;;;;16703871;28;20288;-47
2022/07/26 12:40:57;;;;;;;1.30;1.20;;;;;28.70;98819.00;;;;16700755;28;20226;-48
2022/07/26 12:48:59;;;;;;;1.10;1.00;;;;;28.90;98820.00;;;;16697650;28;20219;-47
2022/07/26 12:57:03;;;;;;;2.00;1.20;;;;;29.10;98813.00;;;;16709213;28;20214;-47
2022/07/26 13:05:07;;;;;;;2.07;1.20;;;;;28.80;98808.00;;;;16705819;28;20230;-47
2022/07/26 13:13:11;;;;;;;1.07;0.97;;;;;30.10;98787.00;;;;16709103;28;20594;-48
2022/07/26 13:21:13;;;;;;;2.40;1.17;;;;;29.60;98788.00;;;;16704861;28;20824;-48
2022/07/26 13:29:17;;;;;;;2.40;1.13;;;;;29.20;98783.00;;;;16705160;28;20300;-48
2022/07/26 13:37:20;;;;;;;2.90;0.90;;;;;29.10;98779.00;;;;16719727;28;20249;-48
2022/07/26 13:45:24;;;;;;;1.33;0.90;;;;;29.40;98774.00;;;;16710378;28;20222;-48
2022/07/26 13:53:26;;;;;;;3.00;1.40;;;;;29.80;98769.00;;;;16705229;28;20304;-49
2022/07/26 14:01:32;;;;;;;2.13;1.17;;;;;30.20;98761.00;;;;16719449;28;20218;-48
2022/07/26 14:09:34;;;;;;;1.23;1.13;;;;;31.20;98762.00;;;;16720067;28;20237;-48
2022/07/26 14:17:38;;;;;;;1.77;1.30;;;;;30.40;98759.00;;;;16711412;28;20302;-48
2022/07/26 14:25:40;;;;;;;1.57;1.00;;;;;29.20;98759.00;;;;16720284;28;20217;-46
2022/07/26 14:33:44;;;;;;;1.53;1.00;;;;;30.00;98760.00;;;;16717443;28;20222;-46
2022/07/26 14:41:47;;;;;;;2.20;0.97;;;;;30.30;98760.00;;;;16718402;28;20316;-45
2022/07/26 14:49:51;;;;;;;1.30;0.90;;;;;29.20;98770.00;;;;16713265;28;20213;-46
2022/07/26 14:57:54;;;;;;;4.10;1.37;;;;;30.10;98760.00;;;;16714556;28;20320;-47
2022/07/26 15:05:58;;;;;;;2.53;1.20;;;;;29.20;98759.00;;;;16716993;28;20233;-47
2022/07/26 15:14:00;;;;;;;3.43;1.20;;;;;29.40;98760.00;;;;16713496;28;20335;-47
2022/07/26 15:22:04;;;;;;;7.13;2.10;;;;;30.00;98751.00;;;;16703572;28;20275;-46
2022/07/26 15:30:08;;;;;;;1.00;0.90;;;;;29.90;98751.00;;;;16708709;28;20762;-46
2022/07/26 15:38:12;;;;;;;1.10;0.80;;;;;30.80;98749.00;;;;16688967;28;20217;-46
2022/07/26 15:46:14;;;;;;;1.63;1.10;;;;;29.90;98750.00;;;;16709513;28;20512;-50
2022/07/26 15:54:19;;;;;;;1.57;1.00;;;;;28.40;98742.00;;;;16690745;28;20300;-48
2022/07/26 16:02:21;;;;;;;1.80;1.00;;;;;32.20;98733.00;;;;16697914;28;20366;-49
2022/07/26 16:10:25;;;;;;;2.43;1.20;;;;;34.30;98717.00;;;;16709302;28;20209;-49
2022/07/26 16:18:28;;;;;;;1.00;0.90;;;;;31.10;98721.00;;;;16702315;28;20703;-48
2022/07/26 16:26:31;;;;;;;2.80;1.13;;;;;31.00;98719.00;;;;16703813;28;20245;-49
2022/07/26 16:34:35;;;;;;;1.43;1.10;;;;;28.70;98724.00;;;;16712011;28;20221;-48
2022/07/26 16:42:39;;;;;;;2.03;1.50;;;;;27.80;98713.00;;;;16709161;28;20345;-48
2022/07/26 16:50:41;;;;;;;2.20;1.40;;;;;28.40;98723.00;;;;16703167;28;20275;-50
2022/07/26 16:58:45;;;;;;;2.40;1.00;;;;;27.70;98727.00;;;;16707164;28;20505;-49
2022/07/26 17:06:48;;;;;;;4.20;1.30;;;;;27.90;98719.00;;;;16702545;28;20225;-48
2022/07/26 17:14:52;;;;;;;1.70;1.37;;;;;30.30;98716.00;;;;16696731;28;20335;-49
2022/07/26 17:22:54;;;;;;;3.13;1.33;;;;;31.80;98710.00;;;;16695636;28;20532;-49
2022/07/26 17:30:58;;;;;;;2.00;1.10;;;;;29.30;98709.00;;;;16711772;28;20218;-50
2022/07/26 17:39:01;;;;;;;1.83;1.47;;;;;29.70;98706.00;;;;16708153;28;20247;-49
2022/07/26 17:47:05;;;;;;;1.50;1.40;;;;;28.20;98704.00;;;;16706196;28;20265;-49
2022/07/26 17:55:08;;;;;;;3.87;2.80;;;;;27.20;98718.00;;;;16701630;28;20240;-48
2022/07/26 18:03:12;;;;;;;2.00;1.43;;;;;27.90;98710.00;;;;16714643;22;20250;-70
2022/07/26 18:11:14;;;;;;;1.83;1.67;;;;;28.80;98699.00;;;;16700596;28;20225;-70
2022/07/26 18:19:18;;;;;;;2.60;1.70;;;;;28.70;98704.00;;;;16706264;28;20257;-69
2022/07/26 18:27:22;;;;;;;1.70;1.50;;;;;27.40;98702.00;;;;16715488;28;20202;-69
2022/07/26 18:35:26;;;;;;;1.50;1.27;;;;;26.90;98708.00;;;;16713003;28;20222;-70
2022/07/26 18:43:28;;;;;;;2.17;1.60;;;;;26.30;98708.00;;;;16707917;28;20230;-70
2022/07/26 18:51:32;;;;;;;1.77;1.27;;;;;26.30;98706.00;;;;16718823;28;20218;-70
2022/07/26 18:59:35;;;;;;;3.03;1.50;;;;;26.60;98713.00;;;;16694046;28;20238;-68
2022/07/26 19:07:39;;;;;;;1.80;1.60;;;;;26.50;98724.00;;;;16711905;28;20322;-69
2022/07/26 19:15:42;;;;;;;1.70;1.57;;;;;26.50;98733.00;;;;16711255;28;20331;-68
2022/07/26 19:23:45;;;;;;;2.90;1.70;;;;;25.90;98744.00;;;;16706379;28;20699;-68
2022/07/26 19:31:48;;;;;;;2.20;1.43;;;;;26.10;98756.00;;;;16710751;28;20253;-68
2022/07/26 19:39:54;;;;;;;2.87;1.80;;;;;25.60;98768.00;;;;16707076;28;20281;-71
2022/07/26 19:47:57;;;;;;;2.83;1.80;;;;;25.10;98784.00;;;;16700708;28;20724;-68
2022/07/26 19:56:01;;;;;;;3.70;1.80;;;;;24.90;98787.00;;;;16713786;28;20428;-68
2022/07/26 20:04:03;;;;;;;3.47;1.63;;;;;24.60;98804.00;;;;16706738;28;20599;-68
2022/07/26 20:12:08;;;;;;;2.70;1.93;;;;;24.80;98804.00;;;;16708184;28;20259;-68
2022/07/26 20:20:11;;;;;;;3.10;1.80;;;;;24.50;98801.00;;;;16702684;28;20233;-68
2022/07/26 20:28:16;;;;;;;3.43;1.67;;;;;24.50;98801.00;;;;16707392;28;20226;-69
2022/07/26 20:36:18;;;;;;;1.80;1.70;;;;;24.10;98805.00;;;;16710020;28;20759;-68
2022/07/26 20:44:22;;;;;;;1.93;1.70;;;;;24.00;98801.00;;;;16706866;28;20260;-68
2022/07/26 20:52:26;;;;;;;4.97;1.93;;;;;24.00;98813.00;;;;16703523;28;20229;-68
2022/07/26 21:00:30;;;;;;;2.60;2.30;;;;;23.60;98797.00;;;;16692355;28;20250;-68
2022/07/26 21:08:33;;;;;;;2.47;2.00;;;;;23.20;98804.00;;;;16706229;28;20241;-67
2022/07/26 21:16:37;;;;;;;2.23;1.83;;;;;22.70;98809.00;;;;16683339;28;20234;-67
2022/07/26 21:24:40;;;;;;;2.80;1.90;;;;;23.10;98815.00;;;;16702800;28;20225;-68
2022/07/26 21:32:44;;;;;;;3.27;2.17;;;;;22.80;98810.00;;;;16705407;28;20225;-67
2022/07/26 21:40:46;;;;;;;2.10;1.90;;;;;22.90;98807.00;;;;16702373;28;20869;-68
2022/07/26 21:48:50;;;;;;;3.43;2.20;;;;;22.80;98796.00;;;;16693014;28;20268;-67
2022/07/26 21:56:53;;;;;;;2.80;2.23;;;;;22.80;98810.00;;;;16717755;28;20194;-69
2022/07/26 22:04:58;;;;;;;3.90;2.10;;;;;23.10;98799.00;;;;16716308;28;20225;-68
2022/07/26 22:13:01;;;;;;;2.30;2.07;;;;;22.30;98804.00;;;;16716859;28;20283;-68
2022/07/26 22:21:05;;;;;;;2.50;2.30;;;;;22.70;98804.00;;;;16719546;28;20214;-69
2022/07/26 22:29:08;;;;;;;2.40;2.10;;;;;22.60;98812.00;;;;16714131;28;20291;-68
2022/07/26 22:37:12;;;;;;;1.90;1.80;;;;;22.50;98807.00;;;;16705196;28;20209;-67
2022/07/26 22:45:15;;;;;;;2.20;2.00;;;;;22.90;98809.00;;;;16706747;28;20844;-68
2022/07/26 22:53:19;;;;;;;2.07;1.90;;;;;23.20;98806.00;;;;16704762;28;20222;-68
2022/07/26 23:01:21;;;;;;;2.03;1.83;;;;;22.80;98810.00;;;;16709251;28;20218;-68
2022/07/26 23:09:25;;;;;;;2.40;2.10;;;;;22.30;98803.00;;;;16712094;28;20222;-68
2022/07/26 23:17:28;;;;;;;3.50;2.20;;;;;22.30;98816.00;;;;16692336;28;20211;-68
2022/07/26 23:25:31;;;;;;;3.40;2.23;;;;;22.20;98809.00;;;;16705988;28;20322;-69
2022/07/26 23:33:34;;;;;;;2.53;2.33;;;;;22.40;98807.00;;;;16707985;28;20226;-68
2022/07/26 23:41:38;;;;;;;3.20;1.80;;;;;22.20;98809.00;;;;16702010;28;20283;-68
2022/07/26 23:49:41;;;;;;;2.33;2.13;;;;;22.30;98810.00;;;;16700423;28;20272;-69
2022/07/26 23:57:45;;;;;;;2.50;2.30;;;;;21.60;98816.00;;;;16696581;28;20202;-69
